Amy B — WDI7307 — position and weather

sailwx.info

Track history (hours):
 
Tides and Currents Weather Stations Pressure Air Temp Water Temp Dewpoint Dewpoint Depression Visibility Wind Speed Wind Dir Waves Ship Positions

Amy B

Owner: WCP, Inc, Wilsonville, OR. More information available from US FCC via Universal Licensing System and Coast Guard Vessel Documentation Center.

Last reported at 2018-Apr-26 09:45 UTC. Time now 2018-Apr-26 15:33 UTC.
Position N 45°48' W 122°51'.

Length 21 m; draft 2.5 m.

Type: Towing. MMSI: 367727410.

Date/timePositionNaut miles runAvg speedWind from/ knotsBaromVisibWave heightAir tempDewpointWater temp
2018-Apr-26 09:45N 45°48' W 122°51'0 0.2
2018-Apr-26 09:30N 45°48' W 122°51'2 4.5
2018-Apr-26 09:00N 45°50' W 122°49'1 1.7
2018-Apr-26 08:25N 45°49' W 122°48'4 9.4
2018-Apr-26 08:00N 45°46' W 122°46'5 9.6
2018-Apr-26 07:31N 45°41' W 122°46'4 7.6
2018-Apr-26 07:01N 45°37' W 122°47'4 8.1
2018-Apr-26 06:30N 45°34' W 122°44'0 0.2
2018-Apr-26 05:59N 45°34' W 122°44'0 0.0
2018-Apr-26 05:29N 45°34' W 122°44'0 0.0
2018-Apr-26 04:56N 45°34' W 122°44'0 0.0
2018-Apr-26 04:29N 45°34' W 122°44'0 0.0
2018-Apr-26 03:56N 45°34' W 122°44'0 0.0
2018-Apr-26 03:13N 45°34' W 122°44'0 0.0
2018-Apr-26 02:59N 45°34' W 122°44'0 0.0
2018-Apr-26 02:26N 45°34' W 122°44'0 0.0
2018-Apr-26 01:55N 45°34' W 122°44'2 4.9
2018-Apr-26 01:30N 45°35' W 122°46'4 5.7
2018-Apr-26 00:47N 45°39' W 122°49'3 5.2
2018-Apr-26 00:17N 45°40' W 122°52'3 5.1
2018-Apr-25 23:46N 45°43' W 122°52'1 4.8
2018-Apr-25 23:30N 45°44' W 122°51'2 4.2
2018-Apr-25 23:00N 45°46' W 122°49'2 3.0
2018-Apr-25 22:16N 45°48' W 122°50'1 2.6
2018-Apr-25 22:01N 45°48' W 122°50'0 0.4
2018-Apr-25 21:30N 45°48' W 122°51'0 0.1
2018-Apr-25 20:55N 45°48' W 122°51'0 0.0
2018-Apr-25 20:28N 45°48' W 122°51'0 0.0
2018-Apr-25 19:55N 45°48' W 122°51'0 0.0
2018-Apr-25 19:28N 45°48' W 122°51'0 0.0
2018-Apr-25 18:31N 45°48' W 122°51'0 0.0
2018-Apr-25 18:25N 45°48' W 122°51'0 1.0
2018-Apr-25 18:00N 45°48' W 122°50'3 4.1
2018-Apr-25 17:11N 45°51' W 122°47'2 9.6
2018-Apr-25 17:00N 45°49' W 122°48'5 9.5
2018-Apr-25 16:30N 45°44' W 122°46'5 9.5
2018-Apr-25 15:59N 45°39' W 122°46'5 9.7
2018-Apr-25 15:30N 45°37' W 122°40'510.3
2018-Apr-25 15:00N 45°36' W 122°33'4 8.6
2018-Apr-25 14:30N 45°34' W 122°27'0 0.9
2018-Apr-25 14:00N 45°34' W 122°27'0 0.0
2018-Apr-25 13:30N 45°34' W 122°27'0 0.0
2018-Apr-25 12:54N 45°34' W 122°27'0 0.0
2018-Apr-25 12:30N 45°34' W 122°27'0 0.0
2018-Apr-25 11:51N 45°34' W 122°27'0 0.0
2018-Apr-25 11:30N 45°34' W 122°27'0 0.0
2018-Apr-25 11:00N 45°34' W 122°27'0 0.0
2018-Apr-25 10:27N 45°34' W 122°27'0 0.0
2018-Apr-25 09:51N 45°34' W 122°27'0 0.0
2018-Apr-25 09:30N 45°34' W 122°27'0 0.0
2018-Apr-25 08:57N 45°34' W 122°27'0 0.0
2018-Apr-25 08:30N 45°34' W 122°27'0 0.0
2018-Apr-25 07:45N 45°34' W 122°27'0 0.0
2018-Apr-25 07:30N 45°34' W 122°27'0 0.0
2018-Apr-25 06:57N 45°34' W 122°27'0 0.0
2018-Apr-25 06:30N 45°34' W 122°27'0 0.0
2018-Apr-25 06:00N 45°34' W 122°27'0 0.0
2018-Apr-25 05:30N 45°34' W 122°27'0 0.0
2018-Apr-25 05:00N 45°34' W 122°27'0 0.0
2018-Apr-25 04:24N 45°34' W 122°27'0 0.0
2018-Apr-25 04:00N 45°34' W 122°27'1 1.3
2018-Apr-25 03:29N 45°34' W 122°27'2 3.9
2018-Apr-25 03:01N 45°35' W 122°30'2 4.1
2018-Apr-25 02:30N 45°36' W 122°33'2 4.0
2018-Apr-25 02:00N 45°36' W 122°35'2 4.0
2018-Apr-25 01:30N 45°37' W 122°38'2 3.9
2018-Apr-25 01:00N 45°37' W 122°41'2 4.4
2018-Apr-25 00:30N 45°38' W 122°43'2 4.5
2018-Apr-25 00:01N 45°40' W 122°46'2 4.6
2018-Apr-24 23:30N 45°42' W 122°46'2 4.6
2018-Apr-24 23:00N 45°45' W 122°46'2 4.6
2018-Apr-24 22:30N 45°47' W 122°47'2 4.6
2018-Apr-24 22:00N 45°49' W 122°48'2 4.6
2018-Apr-24 21:31N 45°51' W 122°47'4 5.0
2018-Apr-24 20:41N 45°48' W 122°50'0 1.2
2018-Apr-24 20:23N 45°48' W 122°51'0 0.1
2018-Apr-24 19:55N 45°48' W 122°51'0 0.0
2018-Apr-24 19:28N 45°48' W 122°51'0 0.0
2018-Apr-24 18:58N 45°48' W 122°51'0 0.0
2018-Apr-24 17:21N 45°48' W 122°51'0 0.0
2018-Apr-24 16:57N 45°48' W 122°51'0 0.0
2018-Apr-24 16:27N 45°48' W 122°51'0 0.0
2018-Apr-24 16:00N 45°48' W 122°51'0 0.0
2018-Apr-24 15:30N 45°48' W 122°51'0 0.0
2018-Apr-24 15:00N 45°48' W 122°51'0 0.0
2018-Apr-24 14:30N 45°48' W 122°51'0 0.0
2018-Apr-24 14:00N 45°48' W 122°51'0 0.0
2018-Apr-24 12:33N 45°48' W 122°51'0 0.0
2018-Apr-24 12:27N 45°48' W 122°51'0 0.0
2018-Apr-24 11:57N 45°48' W 122°51'0 0.0
2018-Apr-24 11:30N 45°48' W 122°51'0 0.0
2018-Apr-24 10:57N 45°48' W 122°51'0 0.0
2018-Apr-24 10:30N 45°48' W 122°51'0 0.0
2018-Apr-24 10:00N 45°48' W 122°51'0 0.0
2018-Apr-24 09:30N 45°48' W 122°51'0 0.0
2018-Apr-24 08:57N 45°48' W 122°51'0 0.0
2018-Apr-24 08:21N 45°48' W 122°51'0 0.0
2018-Apr-24 08:00N 45°48' W 122°51'0 0.0
2018-Apr-24 07:30N 45°48' W 122°51'1 1.3
2018-Apr-24 07:00N 45°48' W 122°50'3 6.2
2018-Apr-24 06:30N 45°51' W 122°48'3 5.2
2018-Apr-24 06:00N 45°48' W 122°47'5 9.9
2018-Apr-24 05:30N 45°43' W 122°46'5 9.3
2018-Apr-24 05:00N 45°39' W 122°45'1 1.5
2018-Apr-24 04:29N 45°39' W 122°44'0 0.0
2018-Apr-24 03:59N 45°39' W 122°44'0 0.0
2018-Apr-24 03:29N 45°39' W 122°44'0 0.0
2018-Apr-24 02:38N 45°39' W 122°44'0 0.0
2018-Apr-24 02:29N 45°39' W 122°44'0 0.0
2018-Apr-24 01:59N 45°39' W 122°44'0 0.0
2018-Apr-24 00:59N 45°39' W 122°44'0 0.0
2018-Apr-24 00:26N 45°39' W 122°44'0 0.0
2018-Apr-23 23:59N 45°39' W 122°44'0 0.0
2018-Apr-23 23:29N 45°39' W 122°44'1 2.2
2018-Apr-23 23:00N 45°39' W 122°45'2 4.5
2018-Apr-23 22:31N 45°41' W 122°46'3 4.5
2018-Apr-23 21:53N 45°44' W 122°46'2 4.6
2018-Apr-23 21:30N 45°46' W 122°46'2 4.5
2018-Apr-23 21:00N 45°48' W 122°47'2 4.4
2018-Apr-23 20:30N 45°50' W 122°47'1 2.4
2018-Apr-23 19:59N 45°51' W 122°48'4 0.1
2018-Apr-22 12:50N 45°48' W 122°51'0 1.1
2018-Apr-22 12:30N 45°48' W 122°50'3 5.3
2018-Apr-22 12:00N 45°50' W 122°48'1 2.7
2018-Apr-22 11:30N 45°49' W 122°48'510.3
2018-Apr-22 11:00N 45°44' W 122°46'7 9.3
2018-Apr-22 10:17N 45°37' W 122°47'2 8.7
2018-Apr-22 10:01N 45°35' W 122°46'2 3.6
2018-Apr-22 09:26N 45°34' W 122°44'0 0.0
2018-Apr-22 08:56N 45°34' W 122°44'0 0.0
2018-Apr-22 08:26N 45°34' W 122°44'0 0.0
2018-Apr-22 07:59N 45°34' W 122°44'0 0.0
2018-Apr-22 07:26N 45°34' W 122°44'0 0.0
2018-Apr-22 06:50N 45°34' W 122°44'0 0.0
2018-Apr-22 06:26N 45°34' W 122°44'0 0.0
2018-Apr-22 05:56N 45°34' W 122°44'0 0.0
2018-Apr-22 05:26N 45°34' W 122°44'0 0.0
2018-Apr-22 04:56N 45°34' W 122°44'0 0.1
2018-Apr-22 04:23N 45°34' W 122°44'2 5.2
2018-Apr-22 04:00N 45°35' W 122°46'3 6.2
2018-Apr-22 03:29N 45°38' W 122°47'3 5.2
2018-Apr-22 03:00N 45°41' W 122°46'2 4.8
2018-Apr-22 02:30N 45°43' W 122°46'2 5.0
2018-Apr-22 02:01N 45°46' W 122°46'3 5.0
2018-Apr-22 01:31N 45°48' W 122°47'2 4.6
2018-Apr-22 01:01N 45°50' W 122°47'1 1.1
2018-Apr-22 00:31N 45°51' W 122°48'3 5.2
2018-Apr-21 23:54N 45°48' W 122°50'0 1.1
2018-Apr-21 23:30N 45°48' W 122°51'0 0.1
2018-Apr-21 22:59N 45°48' W 122°51'0 0.0
2018-Apr-21 22:29N 45°48' W 122°51'0 0.0
2018-Apr-21 21:59N 45°48' W 122°51'0 0.0
2018-Apr-21 21:29N 45°48' W 122°51'0 0.0
2018-Apr-21 20:56N 45°48' W 122°51'0 0.0
2018-Apr-21 20:26N 45°48' W 122°51'0 0.0
2018-Apr-21 19:59N 45°48' W 122°51'0 0.0
2018-Apr-21 19:29N 45°48' W 122°51'0 0.0
2018-Apr-21 18:53N 45°48' W 122°51'0 0.0
2018-Apr-21 18:29N 45°48' W 122°51'0 0.0
2018-Apr-21 17:41N 45°48' W 122°51'0 0.0
2018-Apr-21 17:26N 45°48' W 122°51'0 0.0
2018-Apr-21 16:53N 45°48' W 122°51'0 0.1
2018-Apr-21 16:30N 45°48' W 122°51'3 5.3
2018-Apr-21 16:00N 45°50' W 122°49'2 3.6
2018-Apr-21 15:21N 45°48' W 122°47'3 9.7
2018-Apr-21 15:00N 45°45' W 122°46'5 9.7
2018-Apr-21 14:30N 45°40' W 122°46'2 4.1
2018-Apr-21 13:59N 45°39' W 122°44'0 0.0
2018-Apr-21 13:30N 45°39' W 122°44'0 0.0
2018-Apr-21 12:59N 45°39' W 122°44'0 0.0
2018-Apr-21 12:02N 45°39' W 122°44'0 0.0
2018-Apr-21 11:59N 45°39' W 122°44'0 0.0
2018-Apr-21 11:30N 45°39' W 122°44'0 0.0
2018-Apr-21 10:56N 45°39' W 122°44'0 0.0
2018-Apr-21 10:27N 45°39' W 122°44'0 0.0
2018-Apr-21 09:51N 45°39' W 122°44'0 0.0
2018-Apr-21 09:30N 45°39' W 122°44'0 0.0
2018-Apr-21 08:59N 45°39' W 122°44'0 0.0
2018-Apr-21 08:26N 45°39' W 122°44'0 0.0
2018-Apr-21 07:53N 45°39' W 122°44'0 0.0
2018-Apr-21 07:20N 45°39' W 122°44'0 0.0
2018-Apr-21 06:59N 45°39' W 122°44'0 0.0
2018-Apr-21 06:29N 45°39' W 122°44'0 0.0
2018-Apr-21 06:00N 45°39' W 122°44'0 0.0
2018-Apr-21 05:29N 45°39' W 122°44'0 0.0
2018-Apr-21 04:59N 45°39' W 122°44'0 0.0
2018-Apr-21 04:14N 45°39' W 122°44'0 0.0
2018-Apr-21 03:59N 45°39' W 122°44'0 0.0
2018-Apr-21 03:29N 45°39' W 122°44'0 0.0
2018-Apr-21 02:59N 45°39' W 122°44'0 0.0
2018-Apr-21 02:23N 45°39' W 122°44'0 0.0
2018-Apr-21 01:56N 45°39' W 122°44'0 0.1
2018-Apr-21 01:17N 45°39' W 122°44'1 4.5
2018-Apr-21 01:00N 45°39' W 122°45'3 5.1
2018-Apr-21 00:30N 45°42' W 122°46'3 5.1
2018-Apr-21 00:00N 45°44' W 122°46'3 5.1
2018-Apr-20 23:30N 45°47' W 122°46'2 4.9
2018-Apr-20 23:00N 45°49' W 122°48'2 4.4
2018-Apr-20 22:30N 45°51' W 122°47'2 4.6
2018-Apr-20 22:01N 45°49' W 122°49'1 2.9
2018-Apr-20 21:30N 45°48' W 122°50'1 1.2
2018-Apr-20 21:00N 45°48' W 122°51'0 0.1
2018-Apr-20 20:29N 45°48' W 122°51'0 0.0
2018-Apr-20 19:59N 45°48' W 122°51'0 0.0
2018-Apr-20 19:14N 45°48' W 122°51'0 0.0
2018-Apr-20 18:56N 45°48' W 122°51'0 0.0
2018-Apr-20 18:26N 45°48' W 122°51'0 0.0
2018-Apr-20 17:56N 45°48' W 122°51'0 0.0
2018-Apr-20 17:14N 45°48' W 122°51'0 0.0
2018-Apr-20 16:56N 45°48' W 122°51'0 0.0
2018-Apr-20 16:20N 45°48' W 122°51'0 0.0
2018-Apr-20 15:59N 45°48' W 122°51'0 0.0
2018-Apr-20 14:52N 45°48' W 122°51'0 0.0
2018-Apr-20 14:28N 45°48' W 122°51'0 0.0
2018-Apr-20 13:49N 45°48' W 122°51'0 0.0
2018-Apr-20 13:25N 45°48' W 122°51'0 0.0
2018-Apr-20 12:52N 45°48' W 122°51'0 0.0
2018-Apr-20 12:19N 45°48' W 122°51'0 0.0
2018-Apr-20 11:28N 45°48' W 122°51'0 0.0
2018-Apr-20 10:52N 45°48' W 122°51'0 0.0
2018-Apr-20 10:28N 45°48' W 122°51'0 0.0
2018-Apr-20 09:58N 45°48' W 122°51'0 0.0
2018-Apr-20 09:22N 45°48' W 122°51'0 0.0
2018-Apr-20 08:46N 45°48' W 122°51'0 0.0
2018-Apr-20 08:25N 45°48' W 122°51'0 0.0
2018-Apr-20 07:58N 45°48' W 122°51'0 0.0
2018-Apr-20 07:28N 45°48' W 122°51'0 0.0
2018-Apr-20 06:55N 45°48' W 122°51'0 0.0
2018-Apr-20 06:25N 45°48' W 122°51'0 0.0
2018-Apr-20 05:58N 45°48' W 122°51'0 0.0
2018-Apr-20 05:28N 45°48' W 122°51'0 0.0
2018-Apr-20 04:52N 45°48' W 122°51'0 0.0
2018-Apr-20 04:28N 45°48' W 122°51'0 0.0
2018-Apr-20 03:55N 45°48' W 122°51'0 0.1
2018-Apr-20 03:22N 45°48' W 122°51'1 3.7
2018-Apr-20 03:00N 45°49' W 122°50'3 6.3
2018-Apr-20 02:30N 45°51' W 122°47'5 9.9
2018-Apr-20 02:00N 45°46' W 122°46'510.3
2018-Apr-20 01:30N 45°41' W 122°47'3 6.5
2018-Apr-20 00:59N 45°39' W 122°44'0 0.0
2018-Apr-20 00:27N 45°39' W 122°44'0 0.0
2018-Apr-19 23:54N 45°39' W 122°44'0 0.0
2018-Apr-19 23:30N 45°39' W 122°44'0 0.0
2018-Apr-19 22:57N 45°39' W 122°44'0 0.0
2018-Apr-19 22:30N 45°39' W 122°44'0 0.0
2018-Apr-19 21:59N 45°39' W 122°44'0 0.0
2018-Apr-19 21:29N 45°39' W 122°44'0 0.0
2018-Apr-19 20:57N 45°39' W 122°44'0 0.1
2018-Apr-19 20:21N 45°39' W 122°44'1 4.3
2018-Apr-19 20:00N 45°39' W 122°45'2 4.6
2018-Apr-19 19:30N 45°42' W 122°46'2 4.7
2018-Apr-19 19:00N 45°44' W 122°46'2 4.6
2018-Apr-19 18:31N 45°46' W 122°46'2 4.8
2018-Apr-19 18:00N 45°48' W 122°47'2 4.7
2018-Apr-19 17:30N 45°51' W 122°47'1 2.1
2018-Apr-19 17:01N 45°50' W 122°48'2 3.8
2018-Apr-19 16:30N 45°48' W 122°49'1 2.4
2018-Apr-19 16:00N 45°48' W 122°51'0 0.2
2018-Apr-19 15:30N 45°48' W 122°51'0 0.0
2018-Apr-19 14:51N 45°48' W 122°51'0 0.0
2018-Apr-19 14:21N 45°48' W 122°51'0 0.0
2018-Apr-19 13:54N 45°48' W 122°51'0 0.0
2018-Apr-19 13:27N 45°48' W 122°51'0 0.0
2018-Apr-19 13:00N 45°48' W 122°51'0 0.0
2018-Apr-19 12:30N 45°48' W 122°51'0 0.0
2018-Apr-19 11:57N 45°48' W 122°51'0 0.0
2018-Apr-19 11:15N 45°48' W 122°51'0 0.0
2018-Apr-19 11:00N 45°48' W 122°51'0 0.0
2018-Apr-19 10:30N 45°48' W 122°51'0 0.0
2018-Apr-19 10:00N 45°48' W 122°51'0 0.0
2018-Apr-19 09:27N 45°48' W 122°51'0 0.0
2018-Apr-19 08:57N 45°48' W 122°51'0 0.0
2018-Apr-19 08:30N 45°48' W 122°51'0 0.0
2018-Apr-19 08:00N 45°48' W 122°51'0 0.0
2018-Apr-19 07:27N 45°48' W 122°51'0 0.0
2018-Apr-19 06:57N 45°48' W 122°51'0 0.0
2018-Apr-19 06:15N 45°48' W 122°51'0 0.0
2018-Apr-19 06:00N 45°48' W 122°51'0 0.1
2018-Apr-19 05:28N 45°48' W 122°51'2 4.2
2018-Apr-19 04:58N 45°49' W 122°49'2 4.4
2018-Apr-19 04:30N 45°51' W 122°47'510.0
2018-Apr-19 04:00N 45°46' W 122°46'510.0
2018-Apr-19 03:30N 45°41' W 122°46'3 6.1
2018-Apr-19 03:01N 45°39' W 122°44'0 0.0
2018-Apr-19 02:21N 45°39' W 122°44'0 0.0
2018-Apr-19 01:18N 45°39' W 122°44'0 0.0
2018-Apr-19 01:00N 45°39' W 122°44'0 0.0
2018-Apr-19 00:27N 45°39' W 122°44'0 0.0
2018-Apr-18 23:54N 45°39' W 122°44'0 0.0
2018-Apr-18 23:30N 45°39' W 122°44'0 0.0
2018-Apr-18 22:59N 45°39' W 122°44'0 0.0
2018-Apr-18 22:29N 45°39' W 122°44'1 1.6
2018-Apr-18 21:57N 45°39' W 122°45'2 4.8
2018-Apr-18 21:30N 45°41' W 122°46'2 4.8
2018-Apr-18 21:00N 45°43' W 122°46'2 4.9
2018-Apr-18 20:30N 45°46' W 122°46'3 5.1
2018-Apr-18 20:00N 45°48' W 122°47'2 4.7
2018-Apr-18 19:30N 45°50' W 122°47'1 1.3
2018-Apr-18 19:00N 45°51' W 122°48'2 4.8
2018-Apr-18 18:30N 45°48' W 122°49'1 1.5
2018-Apr-18 17:43N 45°48' W 122°51'0 1.2
2018-Apr-18 17:30N 45°48' W 122°50'0 0.4
2018-Apr-18 16:57N 45°48' W 122°51'0 0.0
2018-Apr-18 16:09N 45°48' W 122°51'0 0.0
2018-Apr-18 15:56N 45°48' W 122°51'0 0.0
2018-Apr-18 15:26N 45°48' W 122°51'0 0.0
2018-Apr-18 14:59N 45°48' W 122°51'0 0.0
2018-Apr-18 14:29N 45°48' W 122°51'0 0.0
2018-Apr-18 13:59N 45°48' W 122°51'0 0.0
2018-Apr-18 13:26N 45°48' W 122°51'0 0.0
2018-Apr-18 12:56N 45°48' W 122°51'0 0.0
2018-Apr-18 12:26N 45°48' W 122°51'0 0.0
2018-Apr-18 11:56N 45°48' W 122°51'0 0.0
2018-Apr-18 11:26N 45°48' W 122°51'0 0.0
2018-Apr-18 10:53N 45°48' W 122°51'0 0.0
2018-Apr-18 10:22N 45°48' W 122°51'0 0.0
2018-Apr-18 09:59N 45°48' W 122°51'0 0.0
2018-Apr-18 09:29N 45°48' W 122°51'0 0.0
2018-Apr-18 08:50N 45°48' W 122°51'0 0.0
2018-Apr-18 08:26N 45°48' W 122°51'0 0.0
2018-Apr-18 07:59N 45°48' W 122°51'0 0.0
2018-Apr-18 07:29N 45°48' W 122°51'0 0.0
2018-Apr-18 06:47N 45°48' W 122°51'0 0.0
2018-Apr-18 06:28N 45°48' W 122°51'0 0.0
2018-Apr-18 05:56N 45°48' W 122°51'0 0.1
2018-Apr-18 05:28N 45°48' W 122°51'2 3.3
2018-Apr-18 05:00N 45°49' W 122°50'3 5.5
2018-Apr-18 04:30N 45°51' W 122°47'5 9.3
2018-Apr-18 04:00N 45°47' W 122°46'5 9.3
2018-Apr-18 03:30N 45°42' W 122°46'4 7.7
2018-Apr-18 03:00N 45°39' W 122°44'0 0.0
2018-Apr-18 02:27N 45°39' W 122°44'0 0.0
2018-Apr-18 02:00N 45°39' W 122°44'0 0.0
2018-Apr-18 01:24N 45°39' W 122°44'0 0.0
2018-Apr-18 01:00N 45°39' W 122°44'0 0.0
2018-Apr-18 00:27N 45°39' W 122°44'0 0.0
2018-Apr-18 00:00N 45°39' W 122°44'0 0.0
2018-Apr-17 23:21N 45°39' W 122°44'0 0.0
2018-Apr-17 23:00N 45°39' W 122°44'1 1.1
2018-Apr-17 22:30N 45°39' W 122°44'3 5.0
2018-Apr-17 22:00N 45°41' W 122°46'3 5.1
2018-Apr-17 21:30N 45°43' W 122°46'2 5.0
2018-Apr-17 21:00N 45°46' W 122°46'2 5.0
2018-Apr-17 20:31N 45°48' W 122°47'2 4.7
2018-Apr-17 20:00N 45°51' W 122°47'3 3.2
2018-Apr-17 19:10N 45°48' W 122°49'0 2.2
2018-Apr-17 19:00N 45°48' W 122°50'1 1.4
2018-Apr-17 18:25N 45°48' W 122°51'0 0.0
2018-Apr-17 18:00N 45°48' W 122°51'0 0.1
2018-Apr-17 17:29N 45°48' W 122°51'0 0.0
2018-Apr-17 16:56N 45°48' W 122°51'0 0.0
2018-Apr-17 16:14N 45°48' W 122°51'0 0.0
2018-Apr-17 15:53N 45°48' W 122°51'0 0.0
2018-Apr-17 15:29N 45°48' W 122°51'0 0.0
2018-Apr-17 14:58N 45°48' W 122°51'0 0.1
2018-Apr-17 14:29N 45°48' W 122°51'2 4.5
2018-Apr-17 14:00N 45°49' W 122°49'1 3.0
2018-Apr-17 13:30N 45°50' W 122°47'6 9.9
2018-Apr-17 12:53N 45°44' W 122°46'410.1
2018-Apr-17 12:30N 45°40' W 122°46'4 8.3
2018-Apr-17 12:00N 45°36' W 122°47'3 6.6
2018-Apr-17 11:30N 45°34' W 122°44'0 0.1
2018-Apr-17 10:47N 45°34' W 122°44'0 0.0
2018-Apr-17 10:29N 45°34' W 122°44'0 0.0
2018-Apr-17 09:56N 45°34' W 122°44'0 0.0
2018-Apr-17 09:26N 45°34' W 122°44'0 0.0
2018-Apr-17 08:56N 45°34' W 122°44'0 0.0
2018-Apr-17 08:29N 45°34' W 122°44'0 0.0
2018-Apr-17 07:56N 45°34' W 122°44'0 0.0
2018-Apr-17 07:26N 45°34' W 122°44'0 0.0
2018-Apr-17 06:56N 45°34' W 122°44'0 0.0
2018-Apr-17 06:29N 45°34' W 122°44'0 0.0
2018-Apr-17 05:56N 45°34' W 122°44'0 0.0
2018-Apr-17 05:26N 45°34' W 122°44'0 0.0
2018-Apr-17 05:00N 45°34' W 122°44'0 0.0
2018-Apr-17 04:30N 45°34' W 122°44'3 5.2
2018-Apr-17 04:00N 45°36' W 122°47'3 5.7
2018-Apr-17 03:30N 45°38' W 122°49'3 5.3
2018-Apr-17 03:00N 45°40' W 122°51'3 5.2
2018-Apr-17 02:30N 45°43' W 122°52'2 4.9
2018-Apr-17 02:00N 45°45' W 122°50'2 4.4
2018-Apr-17 01:30N 45°47' W 122°49'2 3.6
2018-Apr-17 01:00N 45°48' W 122°50'1 1.8
2018-Apr-17 00:24N 45°48' W 122°51'0 0.2
2018-Apr-17 00:00N 45°48' W 122°51'0 0.0
2018-Apr-16 23:13N 45°48' W 122°51'0 0.0
2018-Apr-16 22:39N 45°48' W 122°51'0 0.0
2018-Apr-16 22:30N 45°48' W 122°51'  
Track history (hours):
 
Tides and Currents Weather Stations Pressure Air Temp Water Temp Dewpoint Dewpoint Depression Visibility Wind Speed Wind Dir Waves Ship Positions

Amy B

Owner: WCP, Inc, Wilsonville, OR. More information available from US FCC via Universal Licensing System and Coast Guard Vessel Documentation Center.

Last reported at 2018-Apr-26 09:45 UTC. Time now 2018-Apr-26 15:33 UTC.
Position N 45°48' W 122°51'.

Length 21 m; draft 2.5 m.

Type: Towing. MMSI: 367727410.

Date/timePositionNaut miles runAvg speedWind from/ knotsBaromVisibWave heightAir tempDewpointWater temp
2018-Apr-26 09:45N 45°48' W 122°51'0 0.2
2018-Apr-26 09:30N 45°48' W 122°51'2 4.5
2018-Apr-26 09:00N 45°50' W 122°49'1 1.7
2018-Apr-26 08:25N 45°49' W 122°48'4 9.4
2018-Apr-26 08:00N 45°46' W 122°46'5 9.6
2018-Apr-26 07:31N 45°41' W 122°46'4 7.6
2018-Apr-26 07:01N 45°37' W 122°47'4 8.1
2018-Apr-26 06:30N 45°34' W 122°44'0 0.2
2018-Apr-26 05:59N 45°34' W 122°44'0 0.0
2018-Apr-26 05:29N 45°34' W 122°44'0 0.0
2018-Apr-26 04:56N 45°34' W 122°44'0 0.0
2018-Apr-26 04:29N 45°34' W 122°44'0 0.0
2018-Apr-26 03:56N 45°34' W 122°44'0 0.0
2018-Apr-26 03:13N 45°34' W 122°44'0 0.0
2018-Apr-26 02:59N 45°34' W 122°44'0 0.0
2018-Apr-26 02:26N 45°34' W 122°44'0 0.0
2018-Apr-26 01:55N 45°34' W 122°44'2 4.9
2018-Apr-26 01:30N 45°35' W 122°46'4 5.7
2018-Apr-26 00:47N 45°39' W 122°49'3 5.2
2018-Apr-26 00:17N 45°40' W 122°52'3 5.1
2018-Apr-25 23:46N 45°43' W 122°52'1 4.8
2018-Apr-25 23:30N 45°44' W 122°51'2 4.2
2018-Apr-25 23:00N 45°46' W 122°49'2 3.0
2018-Apr-25 22:16N 45°48' W 122°50'1 2.6
2018-Apr-25 22:01N 45°48' W 122°50'0 0.4
2018-Apr-25 21:30N 45°48' W 122°51'0 0.1
2018-Apr-25 20:55N 45°48' W 122°51'0 0.0
2018-Apr-25 20:28N 45°48' W 122°51'0 0.0
2018-Apr-25 19:55N 45°48' W 122°51'0 0.0
2018-Apr-25 19:28N 45°48' W 122°51'0 0.0
2018-Apr-25 18:31N 45°48' W 122°51'0 0.0
2018-Apr-25 18:25N 45°48' W 122°51'0 1.0
2018-Apr-25 18:00N 45°48' W 122°50'3 4.1
2018-Apr-25 17:11N 45°51' W 122°47'2 9.6
2018-Apr-25 17:00N 45°49' W 122°48'5 9.5
2018-Apr-25 16:30N 45°44' W 122°46'5 9.5
2018-Apr-25 15:59N 45°39' W 122°46'5 9.7
2018-Apr-25 15:30N 45°37' W 122°40'510.3
2018-Apr-25 15:00N 45°36' W 122°33'4 8.6
2018-Apr-25 14:30N 45°34' W 122°27'0 0.9
2018-Apr-25 14:00N 45°34' W 122°27'0 0.0
2018-Apr-25 13:30N 45°34' W 122°27'0 0.0
2018-Apr-25 12:54N 45°34' W 122°27'0 0.0
2018-Apr-25 12:30N 45°34' W 122°27'0 0.0
2018-Apr-25 11:51N 45°34' W 122°27'0 0.0
2018-Apr-25 11:30N 45°34' W 122°27'0 0.0
2018-Apr-25 11:00N 45°34' W 122°27'0 0.0
2018-Apr-25 10:27N 45°34' W 122°27'0 0.0
2018-Apr-25 09:51N 45°34' W 122°27'0 0.0
2018-Apr-25 09:30N 45°34' W 122°27'0 0.0
2018-Apr-25 08:57N 45°34' W 122°27'0 0.0
2018-Apr-25 08:30N 45°34' W 122°27'0 0.0
2018-Apr-25 07:45N 45°34' W 122°27'0 0.0
2018-Apr-25 07:30N 45°34' W 122°27'0 0.0
2018-Apr-25 06:57N 45°34' W 122°27'0 0.0
2018-Apr-25 06:30N 45°34' W 122°27'0 0.0
2018-Apr-25 06:00N 45°34' W 122°27'0 0.0
2018-Apr-25 05:30N 45°34' W 122°27'0 0.0
2018-Apr-25 05:00N 45°34' W 122°27'0 0.0
2018-Apr-25 04:24N 45°34' W 122°27'0 0.0
2018-Apr-25 04:00N 45°34' W 122°27'1 1.3
2018-Apr-25 03:29N 45°34' W 122°27'2 3.9
2018-Apr-25 03:01N 45°35' W 122°30'2 4.1
2018-Apr-25 02:30N 45°36' W 122°33'2 4.0
2018-Apr-25 02:00N 45°36' W 122°35'2 4.0
2018-Apr-25 01:30N 45°37' W 122°38'2 3.9
2018-Apr-25 01:00N 45°37' W 122°41'2 4.4
2018-Apr-25 00:30N 45°38' W 122°43'2 4.5
2018-Apr-25 00:01N 45°40' W 122°46'2 4.6
2018-Apr-24 23:30N 45°42' W 122°46'2 4.6
2018-Apr-24 23:00N 45°45' W 122°46'2 4.6
2018-Apr-24 22:30N 45°47' W 122°47'2 4.6
2018-Apr-24 22:00N 45°49' W 122°48'2 4.6
2018-Apr-24 21:31N 45°51' W 122°47'4 5.0
2018-Apr-24 20:41N 45°48' W 122°50'0 1.2
2018-Apr-24 20:23N 45°48' W 122°51'0 0.1
2018-Apr-24 19:55N 45°48' W 122°51'0 0.0
2018-Apr-24 19:28N 45°48' W 122°51'0 0.0
2018-Apr-24 18:58N 45°48' W 122°51'0 0.0
2018-Apr-24 17:21N 45°48' W 122°51'0 0.0
2018-Apr-24 16:57N 45°48' W 122°51'0 0.0
2018-Apr-24 16:27N 45°48' W 122°51'0 0.0
2018-Apr-24 16:00N 45°48' W 122°51'0 0.0
2018-Apr-24 15:30N 45°48' W 122°51'0 0.0
2018-Apr-24 15:00N 45°48' W 122°51'0 0.0
2018-Apr-24 14:30N 45°48' W 122°51'0 0.0
2018-Apr-24 14:00N 45°48' W 122°51'0 0.0
2018-Apr-24 12:33N 45°48' W 122°51'0 0.0
2018-Apr-24 12:27N 45°48' W 122°51'0 0.0
2018-Apr-24 11:57N 45°48' W 122°51'0 0.0
2018-Apr-24 11:30N 45°48' W 122°51'0 0.0
2018-Apr-24 10:57N 45°48' W 122°51'0 0.0
2018-Apr-24 10:30N 45°48' W 122°51'0 0.0
2018-Apr-24 10:00N 45°48' W 122°51'0 0.0
2018-Apr-24 09:30N 45°48' W 122°51'0 0.0
2018-Apr-24 08:57N 45°48' W 122°51'0 0.0
2018-Apr-24 08:21N 45°48' W 122°51'0 0.0
2018-Apr-24 08:00N 45°48' W 122°51'0 0.0
2018-Apr-24 07:30N 45°48' W 122°51'1 1.3
2018-Apr-24 07:00N 45°48' W 122°50'3 6.2
2018-Apr-24 06:30N 45°51' W 122°48'3 5.2
2018-Apr-24 06:00N 45°48' W 122°47'5 9.9
2018-Apr-24 05:30N 45°43' W 122°46'5 9.3
2018-Apr-24 05:00N 45°39' W 122°45'1 1.5
2018-Apr-24 04:29N 45°39' W 122°44'0 0.0
2018-Apr-24 03:59N 45°39' W 122°44'0 0.0
2018-Apr-24 03:29N 45°39' W 122°44'0 0.0
2018-Apr-24 02:38N 45°39' W 122°44'0 0.0
2018-Apr-24 02:29N 45°39' W 122°44'0 0.0
2018-Apr-24 01:59N 45°39' W 122°44'0 0.0
2018-Apr-24 00:59N 45°39' W 122°44'0 0.0
2018-Apr-24 00:26N 45°39' W 122°44'0 0.0
2018-Apr-23 23:59N 45°39' W 122°44'0 0.0
2018-Apr-23 23:29N 45°39' W 122°44'1 2.2
2018-Apr-23 23:00N 45°39' W 122°45'2 4.5
2018-Apr-23 22:31N 45°41' W 122°46'3 4.5
2018-Apr-23 21:53N 45°44' W 122°46'2 4.6
2018-Apr-23 21:30N 45°46' W 122°46'2 4.5
2018-Apr-23 21:00N 45°48' W 122°47'2 4.4
2018-Apr-23 20:30N 45°50' W 122°47'1 2.4
2018-Apr-23 19:59N 45°51' W 122°48'4 0.1
2018-Apr-22 12:50N 45°48' W 122°51'0 1.1
2018-Apr-22 12:30N 45°48' W 122°50'3 5.3
2018-Apr-22 12:00N 45°50' W 122°48'1 2.7
2018-Apr-22 11:30N 45°49' W 122°48'510.3
2018-Apr-22 11:00N 45°44' W 122°46'7 9.3
2018-Apr-22 10:17N 45°37' W 122°47'2 8.7
2018-Apr-22 10:01N 45°35' W 122°46'2 3.6
2018-Apr-22 09:26N 45°34' W 122°44'0 0.0
2018-Apr-22 08:56N 45°34' W 122°44'0 0.0
2018-Apr-22 08:26N 45°34' W 122°44'0 0.0
2018-Apr-22 07:59N 45°34' W 122°44'0 0.0
2018-Apr-22 07:26N 45°34' W 122°44'0 0.0
2018-Apr-22 06:50N 45°34' W 122°44'0 0.0
2018-Apr-22 06:26N 45°34' W 122°44'0 0.0
2018-Apr-22 05:56N 45°34' W 122°44'0 0.0
2018-Apr-22 05:26N 45°34' W 122°44'0 0.0
2018-Apr-22 04:56N 45°34' W 122°44'0 0.1
2018-Apr-22 04:23N 45°34' W 122°44'2 5.2
2018-Apr-22 04:00N 45°35' W 122°46'3 6.2
2018-Apr-22 03:29N 45°38' W 122°47'3 5.2
2018-Apr-22 03:00N 45°41' W 122°46'2 4.8
2018-Apr-22 02:30N 45°43' W 122°46'2 5.0
2018-Apr-22 02:01N 45°46' W 122°46'3 5.0
2018-Apr-22 01:31N 45°48' W 122°47'2 4.6
2018-Apr-22 01:01N 45°50' W 122°47'1 1.1
2018-Apr-22 00:31N 45°51' W 122°48'3 5.2
2018-Apr-21 23:54N 45°48' W 122°50'0 1.1
2018-Apr-21 23:30N 45°48' W 122°51'0 0.1
2018-Apr-21 22:59N 45°48' W 122°51'0 0.0
2018-Apr-21 22:29N 45°48' W 122°51'0 0.0
2018-Apr-21 21:59N 45°48' W 122°51'0 0.0
2018-Apr-21 21:29N 45°48' W 122°51'0 0.0
2018-Apr-21 20:56N 45°48' W 122°51'0 0.0
2018-Apr-21 20:26N 45°48' W 122°51'0 0.0
2018-Apr-21 19:59N 45°48' W 122°51'0 0.0
2018-Apr-21 19:29N 45°48' W 122°51'0 0.0
2018-Apr-21 18:53N 45°48' W 122°51'0 0.0
2018-Apr-21 18:29N 45°48' W 122°51'0 0.0
2018-Apr-21 17:41N 45°48' W 122°51'0 0.0
2018-Apr-21 17:26N 45°48' W 122°51'0 0.0
2018-Apr-21 16:53N 45°48' W 122°51'0 0.1
2018-Apr-21 16:30N 45°48' W 122°51'3 5.3
2018-Apr-21 16:00N 45°50' W 122°49'2 3.6
2018-Apr-21 15:21N 45°48' W 122°47'3 9.7
2018-Apr-21 15:00N 45°45' W 122°46'5 9.7
2018-Apr-21 14:30N 45°40' W 122°46'2 4.1
2018-Apr-21 13:59N 45°39' W 122°44'0 0.0
2018-Apr-21 13:30N 45°39' W 122°44'0 0.0
2018-Apr-21 12:59N 45°39' W 122°44'0 0.0
2018-Apr-21 12:02N 45°39' W 122°44'0 0.0
2018-Apr-21 11:59N 45°39' W 122°44'0 0.0
2018-Apr-21 11:30N 45°39' W 122°44'0 0.0
2018-Apr-21 10:56N 45°39' W 122°44'0 0.0
2018-Apr-21 10:27N 45°39' W 122°44'0 0.0
2018-Apr-21 09:51N 45°39' W 122°44'0 0.0
2018-Apr-21 09:30N 45°39' W 122°44'0 0.0
2018-Apr-21 08:59N 45°39' W 122°44'0 0.0
2018-Apr-21 08:26N 45°39' W 122°44'0 0.0
2018-Apr-21 07:53N 45°39' W 122°44'0 0.0
2018-Apr-21 07:20N 45°39' W 122°44'0 0.0
2018-Apr-21 06:59N 45°39' W 122°44'0 0.0
2018-Apr-21 06:29N 45°39' W 122°44'0 0.0
2018-Apr-21 06:00N 45°39' W 122°44'0 0.0
2018-Apr-21 05:29N 45°39' W 122°44'0 0.0
2018-Apr-21 04:59N 45°39' W 122°44'0 0.0
2018-Apr-21 04:14N 45°39' W 122°44'0 0.0
2018-Apr-21 03:59N 45°39' W 122°44'0 0.0
2018-Apr-21 03:29N 45°39' W 122°44'0 0.0
2018-Apr-21 02:59N 45°39' W 122°44'0 0.0
2018-Apr-21 02:23N 45°39' W 122°44'0 0.0
2018-Apr-21 01:56N 45°39' W 122°44'0 0.1
2018-Apr-21 01:17N 45°39' W 122°44'1 4.5
2018-Apr-21 01:00N 45°39' W 122°45'3 5.1
2018-Apr-21 00:30N 45°42' W 122°46'3 5.1
2018-Apr-21 00:00N 45°44' W 122°46'3 5.1
2018-Apr-20 23:30N 45°47' W 122°46'2 4.9
2018-Apr-20 23:00N 45°49' W 122°48'2 4.4
2018-Apr-20 22:30N 45°51' W 122°47'2 4.6
2018-Apr-20 22:01N 45°49' W 122°49'1 2.9
2018-Apr-20 21:30N 45°48' W 122°50'1 1.2
2018-Apr-20 21:00N 45°48' W 122°51'0 0.1
2018-Apr-20 20:29N 45°48' W 122°51'0 0.0
2018-Apr-20 19:59N 45°48' W 122°51'0 0.0
2018-Apr-20 19:14N 45°48' W 122°51'0 0.0
2018-Apr-20 18:56N 45°48' W 122°51'0 0.0
2018-Apr-20 18:26N 45°48' W 122°51'0 0.0
2018-Apr-20 17:56N 45°48' W 122°51'0 0.0
2018-Apr-20 17:14N 45°48' W 122°51'0 0.0
2018-Apr-20 16:56N 45°48' W 122°51'0 0.0
2018-Apr-20 16:20N 45°48' W 122°51'0 0.0
2018-Apr-20 15:59N 45°48' W 122°51'0 0.0
2018-Apr-20 14:52N 45°48' W 122°51'0 0.0
2018-Apr-20 14:28N 45°48' W 122°51'0 0.0
2018-Apr-20 13:49N 45°48' W 122°51'0 0.0
2018-Apr-20 13:25N 45°48' W 122°51'0 0.0
2018-Apr-20 12:52N 45°48' W 122°51'0 0.0
2018-Apr-20 12:19N 45°48' W 122°51'0 0.0
2018-Apr-20 11:28N 45°48' W 122°51'0 0.0
2018-Apr-20 10:52N 45°48' W 122°51'0 0.0
2018-Apr-20 10:28N 45°48' W 122°51'0 0.0
2018-Apr-20 09:58N 45°48' W 122°51'0 0.0
2018-Apr-20 09:22N 45°48' W 122°51'0 0.0
2018-Apr-20 08:46N 45°48' W 122°51'0 0.0
2018-Apr-20 08:25N 45°48' W 122°51'0 0.0
2018-Apr-20 07:58N 45°48' W 122°51'0 0.0
2018-Apr-20 07:28N 45°48' W 122°51'0 0.0
2018-Apr-20 06:55N 45°48' W 122°51'0 0.0
2018-Apr-20 06:25N 45°48' W 122°51'0 0.0
2018-Apr-20 05:58N 45°48' W 122°51'0 0.0
2018-Apr-20 05:28N 45°48' W 122°51'0 0.0
2018-Apr-20 04:52N 45°48' W 122°51'0 0.0
2018-Apr-20 04:28N 45°48' W 122°51'0 0.0
2018-Apr-20 03:55N 45°48' W 122°51'0 0.1
2018-Apr-20 03:22N 45°48' W 122°51'1 3.7
2018-Apr-20 03:00N 45°49' W 122°50'3 6.3
2018-Apr-20 02:30N 45°51' W 122°47'5 9.9
2018-Apr-20 02:00N 45°46' W 122°46'510.3
2018-Apr-20 01:30N 45°41' W 122°47'3 6.5
2018-Apr-20 00:59N 45°39' W 122°44'0 0.0
2018-Apr-20 00:27N 45°39' W 122°44'0 0.0
2018-Apr-19 23:54N 45°39' W 122°44'0 0.0
2018-Apr-19 23:30N 45°39' W 122°44'0 0.0
2018-Apr-19 22:57N 45°39' W 122°44'0 0.0
2018-Apr-19 22:30N 45°39' W 122°44'0 0.0
2018-Apr-19 21:59N 45°39' W 122°44'0 0.0
2018-Apr-19 21:29N 45°39' W 122°44'0 0.0
2018-Apr-19 20:57N 45°39' W 122°44'0 0.1
2018-Apr-19 20:21N 45°39' W 122°44'1 4.3
2018-Apr-19 20:00N 45°39' W 122°45'2 4.6
2018-Apr-19 19:30N 45°42' W 122°46'2 4.7
2018-Apr-19 19:00N 45°44' W 122°46'2 4.6
2018-Apr-19 18:31N 45°46' W 122°46'2 4.8
2018-Apr-19 18:00N 45°48' W 122°47'2 4.7
2018-Apr-19 17:30N 45°51' W 122°47'1 2.1
2018-Apr-19 17:01N 45°50' W 122°48'2 3.8
2018-Apr-19 16:30N 45°48' W 122°49'1 2.4
2018-Apr-19 16:00N 45°48' W 122°51'0 0.2
2018-Apr-19 15:30N 45°48' W 122°51'0 0.0
2018-Apr-19 14:51N 45°48' W 122°51'0 0.0
2018-Apr-19 14:21N 45°48' W 122°51'0 0.0
2018-Apr-19 13:54N 45°48' W 122°51'0 0.0
2018-Apr-19 13:27N 45°48' W 122°51'0 0.0
2018-Apr-19 13:00N 45°48' W 122°51'0 0.0
2018-Apr-19 12:30N 45°48' W 122°51'0 0.0
2018-Apr-19 11:57N 45°48' W 122°51'0 0.0
2018-Apr-19 11:15N 45°48' W 122°51'0 0.0
2018-Apr-19 11:00N 45°48' W 122°51'0 0.0
2018-Apr-19 10:30N 45°48' W 122°51'0 0.0
2018-Apr-19 10:00N 45°48' W 122°51'0 0.0
2018-Apr-19 09:27N 45°48' W 122°51'0 0.0
2018-Apr-19 08:57N 45°48' W 122°51'0 0.0
2018-Apr-19 08:30N 45°48' W 122°51'0 0.0
2018-Apr-19 08:00N 45°48' W 122°51'0 0.0
2018-Apr-19 07:27N 45°48' W 122°51'0 0.0
2018-Apr-19 06:57N 45°48' W 122°51'0 0.0
2018-Apr-19 06:15N 45°48' W 122°51'0 0.0
2018-Apr-19 06:00N 45°48' W 122°51'0 0.1
2018-Apr-19 05:28N 45°48' W 122°51'2 4.2
2018-Apr-19 04:58N 45°49' W 122°49'2 4.4
2018-Apr-19 04:30N 45°51' W 122°47'510.0
2018-Apr-19 04:00N 45°46' W 122°46'510.0
2018-Apr-19 03:30N 45°41' W 122°46'3 6.1
2018-Apr-19 03:01N 45°39' W 122°44'0 0.0
2018-Apr-19 02:21N 45°39' W 122°44'0 0.0
2018-Apr-19 01:18N 45°39' W 122°44'0 0.0
2018-Apr-19 01:00N 45°39' W 122°44'0 0.0
2018-Apr-19 00:27N 45°39' W 122°44'0 0.0
2018-Apr-18 23:54N 45°39' W 122°44'0 0.0
2018-Apr-18 23:30N 45°39' W 122°44'0 0.0
2018-Apr-18 22:59N 45°39' W 122°44'0 0.0
2018-Apr-18 22:29N 45°39' W 122°44'1 1.6
2018-Apr-18 21:57N 45°39' W 122°45'2 4.8
2018-Apr-18 21:30N 45°41' W 122°46'2 4.8
2018-Apr-18 21:00N 45°43' W 122°46'2 4.9
2018-Apr-18 20:30N 45°46' W 122°46'3 5.1
2018-Apr-18 20:00N 45°48' W 122°47'2 4.7
2018-Apr-18 19:30N 45°50' W 122°47'1 1.3
2018-Apr-18 19:00N 45°51' W 122°48'2 4.8
2018-Apr-18 18:30N 45°48' W 122°49'1 1.5
2018-Apr-18 17:43N 45°48' W 122°51'0 1.2
2018-Apr-18 17:30N 45°48' W 122°50'0 0.4
2018-Apr-18 16:57N 45°48' W 122°51'0 0.0
2018-Apr-18 16:09N 45°48' W 122°51'0 0.0
2018-Apr-18 15:56N 45°48' W 122°51'0 0.0
2018-Apr-18 15:26N 45°48' W 122°51'0 0.0
2018-Apr-18 14:59N 45°48' W 122°51'0 0.0
2018-Apr-18 14:29N 45°48' W 122°51'0 0.0
2018-Apr-18 13:59N 45°48' W 122°51'0 0.0
2018-Apr-18 13:26N 45°48' W 122°51'0 0.0
2018-Apr-18 12:56N 45°48' W 122°51'0 0.0
2018-Apr-18 12:26N 45°48' W 122°51'0 0.0
2018-Apr-18 11:56N 45°48' W 122°51'0 0.0
2018-Apr-18 11:26N 45°48' W 122°51'0 0.0
2018-Apr-18 10:53N 45°48' W 122°51'0 0.0
2018-Apr-18 10:22N 45°48' W 122°51'0 0.0
2018-Apr-18 09:59N 45°48' W 122°51'0 0.0
2018-Apr-18 09:29N 45°48' W 122°51'0 0.0
2018-Apr-18 08:50N 45°48' W 122°51'0 0.0
2018-Apr-18 08:26N 45°48' W 122°51'0 0.0
2018-Apr-18 07:59N 45°48' W 122°51'0 0.0
2018-Apr-18 07:29N 45°48' W 122°51'0 0.0
2018-Apr-18 06:47N 45°48' W 122°51'0 0.0
2018-Apr-18 06:28N 45°48' W 122°51'0 0.0
2018-Apr-18 05:56N 45°48' W 122°51'0 0.1
2018-Apr-18 05:28N 45°48' W 122°51'2 3.3
2018-Apr-18 05:00N 45°49' W 122°50'3 5.5
2018-Apr-18 04:30N 45°51' W 122°47'5 9.3
2018-Apr-18 04:00N 45°47' W 122°46'5 9.3
2018-Apr-18 03:30N 45°42' W 122°46'4 7.7
2018-Apr-18 03:00N 45°39' W 122°44'0 0.0
2018-Apr-18 02:27N 45°39' W 122°44'0 0.0
2018-Apr-18 02:00N 45°39' W 122°44'0 0.0
2018-Apr-18 01:24N 45°39' W 122°44'0 0.0
2018-Apr-18 01:00N 45°39' W 122°44'0 0.0
2018-Apr-18 00:27N 45°39' W 122°44'0 0.0
2018-Apr-18 00:00N 45°39' W 122°44'0 0.0
2018-Apr-17 23:21N 45°39' W 122°44'0 0.0
2018-Apr-17 23:00N 45°39' W 122°44'1 1.1
2018-Apr-17 22:30N 45°39' W 122°44'3 5.0
2018-Apr-17 22:00N 45°41' W 122°46'3 5.1
2018-Apr-17 21:30N 45°43' W 122°46'2 5.0
2018-Apr-17 21:00N 45°46' W 122°46'2 5.0
2018-Apr-17 20:31N 45°48' W 122°47'2 4.7
2018-Apr-17 20:00N 45°51' W 122°47'3 3.2
2018-Apr-17 19:10N 45°48' W 122°49'0 2.2
2018-Apr-17 19:00N 45°48' W 122°50'1 1.4
2018-Apr-17 18:25N 45°48' W 122°51'0 0.0
2018-Apr-17 18:00N 45°48' W 122°51'0 0.1
2018-Apr-17 17:29N 45°48' W 122°51'0 0.0
2018-Apr-17 16:56N 45°48' W 122°51'0 0.0
2018-Apr-17 16:14N 45°48' W 122°51'0 0.0
2018-Apr-17 15:53N 45°48' W 122°51'0 0.0
2018-Apr-17 15:29N 45°48' W 122°51'0 0.0
2018-Apr-17 14:58N 45°48' W 122°51'0 0.1
2018-Apr-17 14:29N 45°48' W 122°51'2 4.5
2018-Apr-17 14:00N 45°49' W 122°49'1 3.0
2018-Apr-17 13:30N 45°50' W 122°47'6 9.9
2018-Apr-17 12:53N 45°44' W 122°46'410.1
2018-Apr-17 12:30N 45°40' W 122°46'4 8.3
2018-Apr-17 12:00N 45°36' W 122°47'3 6.6
2018-Apr-17 11:30N 45°34' W 122°44'0 0.1
2018-Apr-17 10:47N 45°34' W 122°44'0 0.0
2018-Apr-17 10:29N 45°34' W 122°44'0 0.0
2018-Apr-17 09:56N 45°34' W 122°44'0 0.0
2018-Apr-17 09:26N 45°34' W 122°44'0 0.0
2018-Apr-17 08:56N 45°34' W 122°44'0 0.0
2018-Apr-17 08:29N 45°34' W 122°44'0 0.0
2018-Apr-17 07:56N 45°34' W 122°44'0 0.0
2018-Apr-17 07:26N 45°34' W 122°44'0 0.0
2018-Apr-17 06:56N 45°34' W 122°44'0 0.0
2018-Apr-17 06:29N 45°34' W 122°44'0 0.0
2018-Apr-17 05:56N 45°34' W 122°44'0 0.0
2018-Apr-17 05:26N 45°34' W 122°44'0 0.0
2018-Apr-17 05:00N 45°34' W 122°44'0 0.0
2018-Apr-17 04:30N 45°34' W 122°44'3 5.2
2018-Apr-17 04:00N 45°36' W 122°47'3 5.7
2018-Apr-17 03:30N 45°38' W 122°49'3 5.3
2018-Apr-17 03:00N 45°40' W 122°51'3 5.2
2018-Apr-17 02:30N 45°43' W 122°52'2 4.9
2018-Apr-17 02:00N 45°45' W 122°50'2 4.4
2018-Apr-17 01:30N 45°47' W 122°49'2 3.6
2018-Apr-17 01:00N 45°48' W 122°50'1 1.8
2018-Apr-17 00:24N 45°48' W 122°51'0 0.2
2018-Apr-17 00:00N 45°48' W 122°51'0 0.0
2018-Apr-16 23:13N 45°48' W 122°51'0 0.0
2018-Apr-16 22:39N 45°48' W 122°51'0 0.0
2018-Apr-16 22:30N 45°48' W 122°51'  

Dump ship's entire track history